Flight Track Log - Related Links

Times and Time Zones

All times are in EDT time to prevent confusion due to time zone crossing. See the N23WJ flight status page for this flight to view local times or setup timezone preferences in your user account.

Time Position Orientation Groundspeed Altitude Reporting Facility
EDT Latitude Longitude Course Direction KTS MPH feet Rate Location/Type
Sun 10:25:10 AM 25.5053 -77.1650 278° West 265 305 16,500  Level Miami Center
Sun 10:26:10 AM 25.5072 -77.2364 272° West 236 272 16,500 650 Level Miami Center
Sun 10:27:00 AM 25.4541 -77.0965 263° West  Level FlightAware Approximate
Sun 10:27:10 AM 25.4922 -77.3053 256° West 231 266 17,800  Level Miami Center
Sun 10:28:00 AM 25.4500 -77.1680 270° West  Level FlightAware Approximate
Sun 10:28:10 AM 25.4775 -77.3744 257° West 231 266 18,000  Level Miami Center
Sun 10:29:00 AM 25.4500 -77.2397 270° West  Level FlightAware Approximate
Sun 10:29:10 AM 25.4667 -77.4528 261° West 249 287 18,000  Level Miami Center
Sun 10:30:10 AM 25.4561 -77.5264 261° West 261 300 18,000  Level Miami Center
Sun 10:31:10 AM 25.4431 -77.6067 260° West 266 306 18,000  Level Miami Center
Sun 10:32:10 AM 25.4342 -77.6850 263° West 271 312 18,000  Level Miami Center
Sun 10:33:10 AM 25.4256 -77.7561 262° West 260 299 18,000  Level Miami Center
Sun 10:34:10 AM 25.4208 -77.8275 266° West 243 280 18,000  Level Miami Center
Sun 10:35:10 AM 25.4183 -77.8989 268° West 237 273 18,000  Level Miami Center
Sun 10:36:10 AM 25.4136 -77.9678 266° West 232 267 18,000  Level Miami Center
Sun 10:37:10 AM 25.4111 -78.0367 268° West 232 267 18,000  Level Miami Center
Sun 10:38:10 AM 25.4106 -78.1081 270° West 232 267 18,000  Level Miami Center
Sun 10:39:10 AM 25.4078 -78.1794 268° West 232 267 18,000  Level Miami Center
Sun 10:40:10 AM 25.4069 -78.2506 269° West 232 267 18,000  Level Miami Center
Sun 10:41:10 AM 25.4042 -78.3242 268° West 232 267 18,000  Level Miami Center
Sun 10:42:10 AM 25.4056 -78.3956 271° West 232 267 18,000  Level Miami Center
Sun 10:43:10 AM 25.4047 -78.4692 269° West 238 274 18,000  Level Miami Center
Sun 10:44:10 AM 25.4061 -78.5497 271° West 249 287 18,000  Level Miami Center
Sun 10:45:10 AM 25.4072 -78.6303 271° West 261 300 18,000  Level Miami Center
Sun 10:46:10 AM 25.4042 -78.7131 268° West 266 306 18,000  Level Miami Center
Sun 10:47:10 AM 25.3989 -78.7958 266° West 274 315 18,000  Level Miami Center
Sun 10:48:10 AM 25.3997 -78.8786 271° West 274 315 18,000 -50 Level Miami Center
Sun 10:49:10 AM 25.3986 -78.9614 269° West 274 315 17,900 -700 Descending Miami Center
Sun 10:50:10 AM 25.4036 -79.0467 274° West 274 315 16,600 -1,800 Descending Miami Center
Sun 10:51:10 AM 25.3981 -79.1361 266° West 285 328 14,300 -2,300 Descending Miami Center
Sun 10:52:10 AM 25.3989 -79.2236 271° West 291 335 12,000 -2,350 Descending Miami Center
Sun 10:53:10 AM 25.3936 -79.2972 265° West 269 310 9,600 -2,122 Descending Miami Center
Sun 10:53:32 AM 25.3931 -79.3317 269° West 232 267 9,100 -500 Descending Miami Center
Sun 10:54:10 AM 25.3944 -79.3708 272° West 251 289 9,100  Level Miami Center
Sun 10:54:27 AM 25.3897 -79.4028 261° West 244 281 9,100 -100 Level Miami Center
Sun 10:55:10 AM 25.3889 -79.4419 269° West 245 282 9,000 -90 Descending Miami Center
Sun 10:55:34 AM 25.3906 -79.4764 273° West 227 261 9,000  Level Miami Center
Sun 10:56:10 AM 25.3939 -79.5089 276° West 234 269 9,000  Level Miami Center
Sun 10:56:36 AM 25.3892 -79.5478 262° West 220 253 9,000 -100 Level Miami Center
Sun 10:57:10 AM 25.3947 -79.5800 281° West 229 264 8,900 -590 Descending Miami Center
Sun 10:57:37 AM 25.4067 -79.6194 289° West 240 276 8,400 -700 Descending Miami Center
Sun 10:58:10 AM 25.4186 -79.6472 295° West 234 269 8,200 -393 Descending Miami Center
Sun 10:58:38 AM 25.4261 -79.6911 281° West 241 277 8,000 -200 Descending Miami Center
Sun 10:59:10 AM 25.4361 -79.7144 295° West 234 269 8,000  Level Miami Center
Sun 10:59:39 AM 25.4436 -79.7561 281° West 228 262 8,000  Level Miami Center
Sun 11:00:10 AM 25.4600 -79.7842 303° West 240 276 8,000  Level Miami Center
Sun 11:00:40 AM 25.4672 -79.8281 280° West 228 262 8,000  Level Miami Center
Sun 11:01:10 AM 25.4750 -79.8558 287° West 235 270 8,000 -689 Level Miami Center
Sun 11:01:41 AM 25.4869 -79.8950 289° West 237 273 7,300 -1,400 Descending Miami Center
Sun 11:02:10 AM 25.4986 -79.9300 290° West 240 276 6,600 -1,377 Descending Miami Center
Sun 11:02:42 AM 25.5103 -79.9764 286° West 268 308 5,900 -1,100 Descending Miami Center
Sun 11:03:10 AM 25.5222 -80.0067 294° West 257 296 5,500 -1,286 Descending Miami Center
Sun 11:03:38 AM 25.5339 -80.0461 288° West 263 303 4,700 -947 Descending Miami Center
Sun 11:04:45 AM 25.5550 -80.1247 287° West 250 288 4,000 -896 Descending Miami Center
Sun 11:05:52 AM 25.5803 -80.2131 288° West 262 302 2,700 -1,034 Descending Miami Center
Sun 11:06:41 AM 25.5975 -80.2758 287° West 256 295 2,000 -362 Descending Miami Center
Sun 11:07:48 AM 25.6086 -80.3428 280° West 189 217 2,000 -148 Level Miami Center
Sun 11:08:43 AM 25.6156 -80.4028 277° West 212 244 1,700 -382 Descending Miami Center
Sun 11:09:38 AM 25.6206 -80.4536 276° West 179 206 1,300 -436 Descending Miami Center
Sun 11:11:00 AM 25.6476 -80.4332 34° Northeast  Level Estimated
Sun 11:18:00 AM 25.6476 -80.4332 312° West  Level Estimated

Login

Don't have an account? Register now (free) for customized features, flight alerts, and more!